Time;durP1;ratioP1;P1;durP2;ratioP2;P2;SDS_P1;SDS_P2;PMS_P1;PMS_P2;Temp;Humidity;BMP_temperature;BMP_pressure;BME280_temperature;BME280_humidity;BME280_pressure;Samples;Min_cycle;Max_cycle;Signal;HPM_P1;HPM_P2
2021/01/15 00:01:09;;;;;;;13.37;10.83;;;0.80;99.90;;;;;;4945335;29;20588;-67
2021/01/15 00:03:36;;;;;;;14.63;10.33;;;0.80;99.90;;;;;;4953071;28;20452;-67
2021/01/15 00:06:06;;;;;;;14.80;10.93;;;0.80;99.90;;;;;;4953016;29;20441;-67
2021/01/15 00:08:39;;;;;;;12.33;11.03;;;0.90;99.90;;;;;;4952458;29;20495;-68
2021/01/15 00:11:05;;;;;;;11.80;9.67;;;0.90;99.90;;;;;;4944516;28;20440;-67
2021/01/15 00:13:31;;;;;;;15.60;11.17;;;0.80;99.90;;;;;;4952960;28;20572;-67
2021/01/15 00:15:57;;;;;;;13.07;11.50;;;0.80;99.90;;;;;;4952700;28;20985;-67
2021/01/15 00:18:22;;;;;;;12.50;10.33;;;0.90;99.90;;;;;;4952179;28;20201;-67
2021/01/15 00:20:48;;;;;;;15.80;10.93;;;0.90;99.90;;;;;;4951425;29;20464;-67
2021/01/15 00:23:16;;;;;;;13.63;10.37;;;0.90;99.90;;;;;;4952791;28;20173;-67
2021/01/15 00:25:43;;;;;;;12.37;9.90;;;0.90;99.90;;;;;;4952528;29;20523;-68
2021/01/15 00:28:09;;;;;;;14.87;10.33;;;0.90;99.90;;;;;;4952250;29;20471;-68
2021/01/15 00:30:34;;;;;;;16.20;11.10;;;0.90;99.90;;;;;;4952269;29;20440;-67
2021/01/15 00:33:00;;;;;;;12.97;10.20;;;0.90;99.90;;;;;;4952505;29;20268;-67
2021/01/15 00:35:25;;;;;;;17.10;11.03;;;0.90;99.90;;;;;;4952373;28;20289;-67
2021/01/15 00:37:51;;;;;;;12.77;9.77;;;1.00;99.90;;;;;;4952147;28;20222;-67
2021/01/15 00:40:17;;;;;;;13.60;10.67;;;1.00;99.90;;;;;;4952704;29;20209;-67
2021/01/15 00:42:42;;;;;;;10.70;9.10;;;1.00;99.90;;;;;;4952369;28;20184;-67
2021/01/15 00:45:08;;;;;;;14.80;9.27;;;1.10;99.90;;;;;;4952401;29;20432;-67
2021/01/15 00:47:34;;;;;;;12.57;9.30;;;1.00;99.90;;;;;;4952463;28;20284;-68
2021/01/15 00:49:59;;;;;;;14.50;11.13;;;0.90;99.90;;;;;;4952412;29;20543;-67
2021/01/15 00:52:25;;;;;;;14.10;9.67;;;0.90;99.90;;;;;;4952462;28;20268;-67
2021/01/15 00:54:50;;;;;;;12.57;10.23;;;0.90;99.90;;;;;;4952376;29;20765;-67
2021/01/15 00:57:16;;;;;;;13.73;10.00;;;0.80;99.90;;;;;;4952490;28;20256;-66
2021/01/15 00:59:42;;;;;;;12.53;9.20;;;0.80;99.90;;;;;;4955694;29;20204;-67
2021/01/15 01:02:07;;;;;;;11.17;8.87;;;0.80;99.90;;;;;;4956184;29;20207;-67
2021/01/15 01:04:32;;;;;;;11.80;9.10;;;0.80;99.90;;;;;;4956341;28;20642;-67
2021/01/15 01:06:59;;;;;;;11.83;8.43;;;0.80;99.90;;;;;;4955973;29;20203;-70
2021/01/15 01:09:25;;;;;;;10.50;9.13;;;0.80;99.90;;;;;;4956009;29;20185;-67
2021/01/15 01:11:51;;;;;;;10.07;8.00;;;0.80;99.90;;;;;;4955915;29;20439;-67
2021/01/15 01:14:16;;;;;;;10.37;8.73;;;0.80;99.90;;;;;;4956081;29;20819;-67
2021/01/15 01:16:42;;;;;;;11.63;8.87;;;0.80;99.90;;;;;;4956081;29;20563;-67
2021/01/15 01:19:07;;;;;;;8.97;7.47;;;0.80;99.90;;;;;;4955501;29;20256;-68
2021/01/15 01:21:33;;;;;;;9.50;7.93;;;0.80;99.90;;;;;;4955697;29;20252;-67
2021/01/15 01:23:59;;;;;;;11.40;7.83;;;0.80;99.90;;;;;;4956106;29;20209;-67
2021/01/15 01:26:24;;;;;;;9.63;7.17;;;0.80;99.90;;;;;;4955238;29;20658;-67
2021/01/15 01:28:50;;;;;;;7.00;6.30;;;0.80;99.90;;;;;;4955624;29;20185;-67
2021/01/15 01:31:17;;;;;;;10.33;7.40;;;0.80;99.90;;;;;;4955818;29;20180;-67
2021/01/15 01:33:44;;;;;;;9.57;7.23;;;0.80;99.90;;;;;;4956135;29;20177;-67
2021/01/15 01:36:11;;;;;;;8.03;7.23;;;0.80;99.90;;;;;;4955604;29;20441;-68
2021/01/15 01:38:37;;;;;;;6.50;5.73;;;0.80;99.90;;;;;;4955519;28;20440;-67
2021/01/15 01:41:03;;;;;;;11.33;5.90;;;0.80;99.90;;;;;;4953595;28;20464;-67
2021/01/15 01:43:29;;;;;;;7.90;6.70;;;0.80;99.90;;;;;;4955517;28;20445;-67
2021/01/15 01:45:57;;;;;;;6.93;6.23;;;0.80;99.90;;;;;;4954234;29;20552;-68
2021/01/15 01:48:23;;;;;;;7.13;5.53;;;0.80;99.90;;;;;;4955263;28;20193;-67
2021/01/15 01:50:52;;;;;;;7.80;5.27;;;0.70;99.90;;;;;;4955510;28;20548;-68
2021/01/15 01:53:20;;;;;;;8.83;6.53;;;0.80;99.90;;;;;;4955144;29;20184;-67
2021/01/15 01:55:47;;;;;;;7.03;5.10;;;0.80;99.90;;;;;;4955343;28;20942;-67
2021/01/15 01:58:15;;;;;;;5.87;5.27;;;0.70;99.90;;;;;;4955118;28;20483;-68
2021/01/15 02:00:42;;;;;;;7.43;5.20;;;0.80;99.90;;;;;;4955138;29;20527;-68
2021/01/15 02:03:08;;;;;;;5.60;5.10;;;0.70;99.90;;;;;;4955012;29;21071;-67
2021/01/15 02:05:33;;;;;;;5.13;4.53;;;0.70;99.90;;;;;;4955146;29;20530;-67
2021/01/15 02:07:59;;;;;;;5.30;4.80;;;0.70;99.90;;;;;;4954832;29;20830;-67
2021/01/15 02:10:45;;;;;;;7.50;4.67;;;0.70;99.90;;;;;;4954105;28;20184;-68
2021/01/15 02:13:15;;;;;;;5.20;4.67;;;0.60;99.90;;;;;;4954995;29;20189;-67
2021/01/15 02:15:47;;;;;;;6.10;4.73;;;0.70;99.90;;;;;;4940128;29;20527;-67
2021/01/15 02:18:23;;;;;;;5.23;4.67;;;0.70;99.90;;;;;;4954734;29;20502;-67
2021/01/15 02:21:19;;;;;;;6.70;4.10;;;0.60;99.90;;;;;;4954892;28;21042;-67
2021/01/15 02:23:45;;;;;;;5.80;4.20;;;0.60;99.90;;;;;;4954808;28;20451;-67
2021/01/15 02:27:01;;;;;;;4.60;3.80;;;0.60;99.90;;;;;;4954661;29;20445;-67
2021/01/15 02:29:29;;;;;;;7.33;4.87;;;0.70;99.90;;;;;;4942143;29;20495;-67
2021/01/15 02:32:13;;;;;;;6.63;4.40;;;0.70;99.90;;;;;;4954592;29;20420;-68
2021/01/15 02:35:16;;;;;;;6.33;5.10;;;0.80;99.90;;;;;;4955585;29;20432;-68
2021/01/15 02:37:57;;;;;;;5.93;5.33;;;0.80;99.90;;;;;;4945333;29;20891;-68
2021/01/15 02:40:32;;;;;;;10.53;5.30;;;0.70;99.90;;;;;;4956356;29;20510;-68
2021/01/15 02:43:01;;;;;;;5.37;4.40;;;0.80;99.90;;;;;;4957219;29;20475;-69
2021/01/15 02:45:26;;;;;;;9.63;5.20;;;0.80;99.90;;;;;;4957266;29;20468;-67
2021/01/15 02:47:54;;;;;;;8.20;6.23;;;0.80;99.90;;;;;;4956274;29;20452;-68
2021/01/15 02:50:22;;;;;;;7.20;4.70;;;0.80;99.90;;;;;;4957706;28;20216;-69
2021/01/15 02:52:48;;;;;;;5.93;3.90;;;0.80;99.90;;;;;;4957801;29;20531;-67
2021/01/15 02:55:14;;;;;;;5.30;4.20;;;0.80;99.90;;;;;;4957451;29;20787;-68
2021/01/15 02:57:40;;;;;;;4.87;4.13;;;0.70;99.90;;;;;;4951816;28;20286;-68
2021/01/15 03:00:11;;;;;;;9.00;4.07;;;0.70;99.90;;;;;;4951085;29;20823;-68
2021/01/15 03:03:01;;;;;;;6.30;4.13;;;0.60;99.90;;;;;;4957172;28;20432;-69
2021/01/15 03:05:43;;;;;;;4.50;3.77;;;0.60;99.90;;;;;;4953740;29;20434;-68
2021/01/15 03:08:09;;;;;;;4.77;4.27;;;0.50;99.90;;;;;;4946067;28;20630;-67
2021/01/15 03:10:39;;;;;;;4.40;4.00;;;0.50;99.90;;;;;;4954704;29;20476;-69
2021/01/15 03:13:06;;;;;;;4.37;3.73;;;0.50;99.90;;;;;;4957009;29;20440;-69
2021/01/15 03:15:35;;;;;;;5.20;4.70;;;0.50;99.90;;;;;;4946285;29;20439;-68
2021/01/15 03:18:01;;;;;;;7.97;4.10;;;0.40;99.90;;;;;;4950182;28;20461;-68
2021/01/15 03:20:27;;;;;;;4.80;4.30;;;0.40;99.90;;;;;;4951926;28;20500;-68
2021/01/15 03:22:53;;;;;;;5.30;3.93;;;0.40;99.90;;;;;;4949677;29;20488;-69
2021/01/15 03:25:20;;;;;;;4.53;3.80;;;0.40;99.90;;;;;;4954357;29;20512;-69
2021/01/15 03:27:49;;;;;;;5.70;4.30;;;0.50;99.90;;;;;;4957310;28;20985;-69
2021/01/15 03:30:18;;;;;;;4.87;3.90;;;0.50;99.90;;;;;;4946686;29;20438;-69
2021/01/15 03:32:46;;;;;;;5.60;3.70;;;0.50;99.90;;;;;;4955049;29;20578;-69
2021/01/15 03:35:24;;;;;;;4.00;3.60;;;0.40;99.90;;;;;;4944936;29;20437;-70
2021/01/15 03:37:49;;;;;;;4.73;4.10;;;0.30;99.90;;;;;;4949606;29;20999;-69
2021/01/15 03:40:15;;;;;;;4.53;3.70;;;0.20;99.90;;;;;;4954357;29;20460;-69
2021/01/15 03:42:41;;;;;;;4.07;3.67;;;0.30;99.90;;;;;;4956242;29;20185;-67
2021/01/15 03:45:07;;;;;;;4.40;4.00;;;0.20;99.90;;;;;;4955098;29;20192;-68
2021/01/15 03:47:32;;;;;;;8.13;4.20;;;0.10;99.90;;;;;;4954703;29;20275;-67
2021/01/15 03:49:58;;;;;;;6.87;4.10;;;0.00;99.90;;;;;;4954858;29;20591;-69
2021/01/15 03:52:23;;;;;;;7.37;3.90;;;0.10;99.90;;;;;;4954798;29;20186;-69
2021/01/15 03:54:49;;;;;;;5.03;4.37;;;0.10;99.90;;;;;;4943865;29;20674;-68
2021/01/15 03:57:14;;;;;;;5.00;4.27;;;0.10;99.90;;;;;;4955275;28;20200;-68
2021/01/15 03:59:40;;;;;;;5.23;3.93;;;0.20;99.90;;;;;;4954756;29;20303;-69
2021/01/15 04:02:05;;;;;;;4.13;3.80;;;0.10;99.90;;;;;;4955398;28;20177;-68
2021/01/15 04:04:31;;;;;;;5.00;4.50;;;0.10;99.90;;;;;;4952764;29;20180;-69
2021/01/15 04:06:59;;;;;;;5.80;3.43;;;0.00;99.90;;;;;;4952258;29;20201;-68
2021/01/15 04:09:24;;;;;;;5.53;4.43;;;0.00;99.90;;;;;;4953260;29;20169;-69
2021/01/15 04:11:50;;;;;;;5.60;4.30;;;0.00;99.90;;;;;;4954068;29;20471;-68
2021/01/15 04:14:15;;;;;;;3.97;3.60;;;0.00;99.90;;;;;;4954299;29;20795;-68
2021/01/15 04:16:41;;;;;;;5.53;4.83;;;0.00;99.90;;;;;;4954165;29;20671;-68
2021/01/15 04:19:06;;;;;;;4.10;3.70;;;0.00;99.90;;;;;;4953194;29;20189;-69
2021/01/15 04:21:32;;;;;;;6.17;4.40;;;-0.10;99.90;;;;;;4951277;29;20574;-68
2021/01/15 04:23:57;;;;;;;5.50;3.80;;;0.00;99.90;;;;;;4952921;28;20212;-68
2021/01/15 04:26:23;;;;;;;6.87;4.30;;;-0.10;99.90;;;;;;4952355;29;20263;-67
2021/01/15 04:28:52;;;;;;;4.30;4.00;;;-0.10;99.90;;;;;;4953578;29;20689;-68
2021/01/15 04:31:20;;;;;;;5.63;4.13;;;-0.10;99.90;;;;;;4955211;29;20463;-69
2021/01/15 04:33:46;;;;;;;6.97;3.90;;;-0.20;99.90;;;;;;4953460;28;20499;-68
2021/01/15 04:36:12;;;;;;;4.97;4.10;;;-0.20;99.90;;;;;;4952529;29;20448;-68
2021/01/15 04:38:39;;;;;;;5.00;4.30;;;-0.20;99.90;;;;;;4953902;28;20527;-68
2021/01/15 04:41:05;;;;;;;3.90;3.60;;;-0.30;99.90;;;;;;4954144;28;20471;-68
2021/01/15 04:43:33;;;;;;;8.57;4.87;;;-0.30;99.90;;;;;;4954302;29;20440;-69
2021/01/15 04:46:03;;;;;;;3.70;3.40;;;-0.30;99.90;;;;;;4953935;29;20185;-69
2021/01/15 04:48:33;;;;;;;7.80;4.50;;;-0.30;99.90;;;;;;4954037;28;20440;-67
2021/01/15 04:51:01;;;;;;;5.07;3.30;;;-0.30;99.90;;;;;;4953443;29;20823;-68
2021/01/15 04:53:28;;;;;;;6.17;4.20;;;-0.40;99.90;;;;;;4954493;29;20805;-69
2021/01/15 04:55:58;;;;;;;7.03;5.20;;;-0.40;99.90;;;;;;4954246;28;20903;-68
2021/01/15 04:58:32;;;;;;;5.47;3.80;;;-0.40;99.90;;;;;;4953689;28;20522;-69
2021/01/15 05:00:59;;;;;;;4.87;4.37;;;-0.40;99.90;;;;;;4953629;29;20468;-69
2021/01/15 05:03:26;;;;;;;4.67;4.27;;;-0.40;99.90;;;;;;4953999;28;20440;-68
2021/01/15 05:06:00;;;;;;;5.90;4.60;;;-0.50;99.90;;;;;;4953414;28;20583;-69
2021/01/15 05:08:27;;;;;;;5.50;4.10;;;-0.50;99.90;;;;;;4953368;28;20467;-69
2021/01/15 05:10:54;;;;;;;9.00;5.40;;;-0.50;99.90;;;;;;4953149;28;20953;-68
2021/01/15 05:13:19;;;;;;;4.53;4.03;;;-0.50;99.90;;;;;;4953607;29;20445;-69
2021/01/15 05:15:50;;;;;;;5.23;4.17;;;-0.50;99.90;;;;;;4968113;28;20444;-68
2021/01/15 05:18:17;;;;;;;5.00;4.50;;;-0.50;99.90;;;;;;4950743;29;20209;-69
2021/01/15 05:20:44;;;;;;;7.30;5.13;;;-0.50;99.90;;;;;;4953689;29;20551;-68
2021/01/15 05:23:09;;;;;;;5.60;4.97;;;-0.50;99.90;;;;;;4953605;28;20436;-69
2021/01/15 05:25:41;;;;;;;6.10;5.00;;;-0.50;99.90;;;;;;4940816;29;20496;-69
2021/01/15 05:28:06;;;;;;;6.10;5.20;;;-0.60;99.90;;;;;;4953069;29;20638;-68
2021/01/15 05:30:32;;;;;;;7.23;4.50;;;-0.60;99.90;;;;;;4953048;29;20487;-68
2021/01/15 05:33:00;;;;;;;7.20;5.10;;;-0.60;99.90;;;;;;4953048;29;20710;-68
2021/01/15 05:35:45;;;;;;;10.47;6.80;;;-0.60;99.90;;;;;;4952896;28;20441;-67
2021/01/15 05:38:15;;;;;;;21.87;11.10;;;-0.60;99.90;;;;;;4949920;29;20487;-69
2021/01/15 05:40:42;;;;;;;26.43;12.10;;;-0.60;99.90;;;;;;4953040;28;20961;-69
2021/01/15 05:43:18;;;;;;;20.70;13.70;;;-0.60;99.90;;;;;;4952916;29;20488;-68
2021/01/15 05:45:47;;;;;;;13.87;12.43;;;-0.70;99.90;;;;;;4954729;28;20440;-69
2021/01/15 05:48:13;;;;;;;20.27;14.77;;;-0.70;99.90;;;;;;4956281;29;20467;-68
2021/01/15 05:50:39;;;;;;;15.73;10.90;;;-0.80;99.90;;;;;;4950686;29;20432;-69
2021/01/15 05:53:05;;;;;;;13.00;8.10;;;-0.70;99.90;;;;;;4955581;29;20184;-68
2021/01/15 05:55:30;;;;;;;7.23;6.50;;;-0.80;99.90;;;;;;4956355;29;20441;-69
2021/01/15 05:58:07;;;;;;;7.13;5.53;;;-0.70;99.90;;;;;;4956039;28;20683;-69
2021/01/15 06:00:33;;;;;;;8.97;6.43;;;-0.80;99.90;;;;;;4952426;29;20200;-68
2021/01/15 06:03:04;;;;;;;8.30;6.60;;;-0.80;99.90;;;;;;4950634;28;20432;-68
2021/01/15 06:05:30;;;;;;;11.80;8.50;;;-0.80;99.90;;;;;;4956214;29;20440;-69
2021/01/15 06:07:56;;;;;;;7.60;6.37;;;-0.80;99.90;;;;;;4951663;29;20883;-68
2021/01/15 06:10:22;;;;;;;8.57;5.97;;;-0.80;99.90;;;;;;4943869;29;20461;-69
2021/01/15 06:12:48;;;;;;;8.57;6.70;;;-0.90;99.90;;;;;;4956269;29;20500;-69
2021/01/15 06:15:15;;;;;;;6.63;5.27;;;-0.90;99.90;;;;;;4956288;29;20800;-69
2021/01/15 06:17:40;;;;;;;11.33;6.50;;;-0.90;99.90;;;;;;4955309;29;20229;-69
2021/01/15 06:20:07;;;;;;;8.83;6.93;;;-1.00;99.90;;;;;;4955137;29;20456;-69
2021/01/15 06:22:37;;;;;;;11.00;6.83;;;-1.00;99.90;;;;;;4955931;29;20611;-69
2021/01/15 06:25:30;;;;;;;6.90;5.43;;;-1.00;99.90;;;;;;4956269;28;20437;-69
2021/01/15 06:27:58;;;;;;;10.13;5.80;;;-1.00;99.90;;;;;;4955062;29;20479;-67
2021/01/15 06:30:25;;;;;;;7.83;5.70;;;-1.00;99.90;;;;;;4955329;29;20464;-71
2021/01/15 06:32:52;;;;;;;8.63;7.47;;;-1.00;99.90;;;;;;4957910;29;20437;-68
2021/01/15 06:35:28;;;;;;;9.50;6.03;;;-1.10;99.90;;;;;;4958046;28;20444;-66
2021/01/15 06:38:17;;;;;;;6.60;5.53;;;-1.10;99.90;;;;;;4952291;28;20570;-67
2021/01/15 06:40:47;;;;;;;7.20;6.43;;;-1.10;99.90;;;;;;4957788;29;20492;-67
2021/01/15 06:43:19;;;;;;;6.73;6.10;;;-1.10;99.90;;;;;;4955998;28;20495;-69
2021/01/15 06:45:47;;;;;;;6.00;5.40;;;-1.10;99.90;;;;;;4953123;29;20444;-70
2021/01/15 06:48:13;;;;;;;13.53;9.37;;;-1.20;99.90;;;;;;4954041;28;20478;-69
2021/01/15 06:50:40;;;;;;;7.40;6.60;;;-1.20;99.90;;;;;;4954188;28;20854;-70
2021/01/15 06:53:27;;;;;;;7.30;5.70;;;-1.30;99.90;;;;;;4954118;28;20444;-70
2021/01/15 06:55:54;;;;;;;8.23;5.83;;;-1.30;99.90;;;;;;4953668;28;20428;-69
2021/01/15 06:58:26;;;;;;;7.73;6.03;;;-1.30;99.90;;;;;;4948737;29;20456;-70
2021/01/15 07:01:19;;;;;;;7.90;6.70;;;-1.30;99.90;;;;;;4952090;28;20467;-69
2021/01/15 07:03:57;;;;;;;10.47;5.67;;;-1.30;99.90;;;;;;4954635;29;20443;-69
2021/01/15 07:06:32;;;;;;;8.43;6.20;;;-1.30;99.90;;;;;;4953609;28;20536;-70
2021/01/15 07:09:08;;;;;;;9.80;6.77;;;-1.30;99.90;;;;;;4953941;29;20427;-69
2021/01/15 07:11:40;;;;;;;8.73;6.27;;;-1.30;99.90;;;;;;4954308;28;20965;-69
2021/01/15 07:14:06;;;;;;;6.43;5.40;;;-1.30;99.90;;;;;;4954443;29;20913;-69
2021/01/15 07:16:37;;;;;;;9.33;6.80;;;-1.30;99.90;;;;;;4954493;28;20543;-69
2021/01/15 07:19:08;;;;;;;8.43;6.50;;;-1.20;99.90;;;;;;4953892;29;20195;-68
2021/01/15 07:21:38;;;;;;;12.53;7.60;;;-1.20;99.90;;;;;;4953959;29;20460;-70
2021/01/15 07:24:10;;;;;;;10.20;8.00;;;-1.10;99.90;;;;;;4953809;29;20785;-69
2021/01/15 07:26:39;;;;;;;8.73;6.97;;;-1.00;99.90;;;;;;4942982;29;20488;-69
2021/01/15 07:29:09;;;;;;;7.97;6.67;;;-1.00;99.90;;;;;;4949926;29;20445;-67
2021/01/15 07:31:39;;;;;;;15.17;7.43;;;-1.00;99.90;;;;;;4917800;28;20501;-68
2021/01/15 07:34:09;;;;;;;7.33;6.27;;;-0.90;99.90;;;;;;4942065;28;20802;-67
2021/01/15 07:36:39;;;;;;;9.50;7.13;;;-0.90;99.90;;;;;;4953895;28;20468;-67
2021/01/15 07:39:10;;;;;;;7.30;6.57;;;-0.80;99.90;;;;;;4951866;28;21223;-67
2021/01/15 07:41:52;;;;;;;8.47;6.60;;;-0.70;99.90;;;;;;4950331;29;20467;-67
2021/01/15 07:44:27;;;;;;;7.13;6.43;;;-0.60;99.90;;;;;;4951211;28;20432;-69
2021/01/15 07:46:58;;;;;;;9.97;6.47;;;-0.50;99.90;;;;;;4953118;29;20756;-69
2021/01/15 07:49:24;;;;;;;7.37;6.13;;;-0.40;99.90;;;;;;4953166;28;20475;-69
2021/01/15 07:52:11;;;;;;;6.37;5.73;;;-0.40;99.90;;;;;;4945700;29;20443;-69
2021/01/15 07:54:57;;;;;;;11.50;8.00;;;-0.30;99.90;;;;;;4953256;28;22015;-68
2021/01/15 07:57:24;;;;;;;7.83;6.30;;;-0.20;99.90;;;;;;4948210;28;20461;-67
2021/01/15 07:59:50;;;;;;;10.90;8.10;;;0.00;99.90;;;;;;4952465;28;20456;-68
2021/01/15 08:02:17;;;;;;;9.67;8.30;;;0.20;99.90;;;;;;4940050;29;20930;-68
2021/01/15 08:04:45;;;;;;;15.07;9.13;;;0.50;99.90;;;;;;4952845;29;20449;-67
2021/01/15 08:07:26;;;;;;;12.37;9.20;;;0.70;99.90;;;;;;4952150;28;20851;-68
2021/01/15 08:09:56;;;;;;;12.30;10.23;;;1.10;99.90;;;;;;4966333;28;20436;-68
2021/01/15 08:12:23;;;;;;;10.13;9.00;;;1.20;99.90;;;;;;4953004;28;20484;-68
2021/01/15 08:14:49;;;;;;;14.33;11.40;;;1.50;99.90;;;;;;4951603;29;20977;-68
2021/01/15 08:17:25;;;;;;;14.70;11.47;;;1.90;99.90;;;;;;4952388;28;20457;-69
2021/01/15 08:19:51;;;;;;;19.10;12.00;;;2.60;99.90;;;;;;4951782;28;20200;-69
2021/01/15 08:22:18;;;;;;;11.30;10.20;;;3.00;99.90;;;;;;4952869;28;20506;-68
2021/01/15 08:24:48;;;;;;;16.17;12.07;;;3.30;99.90;;;;;;4952147;28;20476;-68
2021/01/15 08:27:23;;;;;;;10.67;9.57;;;3.60;99.90;;;;;;4951672;28;20468;-68
2021/01/15 08:29:50;;;;;;;11.20;9.57;;;4.30;99.90;;;;;;4951755;28;20934;-69
2021/01/15 08:32:16;;;;;;;11.77;10.57;;;5.10;99.90;;;;;;4952405;28;20803;-69
2021/01/15 08:34:46;;;;;;;10.60;9.60;;;5.60;99.90;;;;;;4952592;29;20531;-69
2021/01/15 08:37:17;;;;;;;9.83;8.93;;;6.00;99.90;;;;;;4950944;28;20472;-69
2021/01/15 08:39:46;;;;;;;12.93;8.77;;;6.40;99.90;;;;;;4948576;29;20440;-68
2021/01/15 08:42:13;;;;;;;12.63;8.80;;;6.60;99.90;;;;;;4952541;28;20491;-68
2021/01/15 08:44:40;;;;;;;9.90;8.90;;;6.80;99.90;;;;;;4952435;29;20846;-69
2021/01/15 08:47:10;;;;;;;10.07;8.83;;;6.80;99.90;;;;;;4952359;28;20580;-68
2021/01/15 08:49:38;;;;;;;9.40;8.30;;;7.00;99.90;;;;;;4949059;28;20808;-70
2021/01/15 08:52:06;;;;;;;11.37;10.07;;;7.20;99.90;;;;;;4941742;29;20436;-69
2021/01/15 08:54:39;;;;;;;10.97;9.07;;;7.00;99.90;;;;;;4952412;28;21110;-69
2021/01/15 08:57:05;;;;;;;12.83;8.47;;;6.60;99.90;;;;;;4952086;28;20456;-68
2021/01/15 08:59:33;;;;;;;10.60;9.43;;;6.40;99.90;;;;;;4951624;28;20496;-68
2021/01/15 09:02:09;;;;;;;11.63;9.57;;;6.40;99.90;;;;;;4949689;28;20440;-69
2021/01/15 09:04:44;;;;;;;12.20;9.30;;;6.70;99.90;;;;;;4944645;28;20459;-68
2021/01/15 09:07:13;;;;;;;11.00;9.13;;;6.80;99.90;;;;;;4948746;29;20463;-68
2021/01/15 09:09:39;;;;;;;11.57;8.60;;;7.30;99.90;;;;;;4936507;29;20428;-68
2021/01/15 09:12:09;;;;;;;10.30;9.13;;;7.70;99.90;;;;;;4948440;29;20495;-69
2021/01/15 09:14:35;;;;;;;10.23;9.23;;;7.50;99.90;;;;;;4951533;28;20980;-68
2021/01/15 09:17:05;;;;;;;11.17;9.40;;;7.40;99.90;;;;;;4951738;28;21325;-68
2021/01/15 09:19:31;;;;;;;11.40;9.53;;;7.90;99.60;;;;;;4953485;28;20835;-70
2021/01/15 09:22:01;;;;;;;10.60;9.50;;;8.50;98.70;;;;;;4955640;29;20440;-69
2021/01/15 09:24:29;;;;;;;10.03;9.13;;;9.20;96.40;;;;;;4955579;28;20176;-68
2021/01/15 09:26:58;;;;;;;11.37;9.83;;;10.30;93.90;;;;;;4955593;28;20452;-68
2021/01/15 09:29:24;;;;;;;10.60;9.30;;;11.30;88.50;;;;;;4944423;28;20993;-68
2021/01/15 09:31:51;;;;;;;10.87;9.77;;;11.50;83.50;;;;;;4954594;29;20490;-68
2021/01/15 09:34:18;;;;;;;12.27;9.57;;;11.30;81.10;;;;;;4955037;28;20432;-68
2021/01/15 09:36:45;;;;;;;10.83;9.70;;;11.90;77.60;;;;;;4954961;28;20460;-69
2021/01/15 09:39:13;;;;;;;10.03;9.13;;;12.40;75.70;;;;;;4947613;28;20477;-69
2021/01/15 09:41:48;;;;;;;12.53;11.30;;;12.40;72.70;;;;;;4944007;29;20542;-69
2021/01/15 09:44:14;;;;;;;12.17;10.93;;;13.20;70.20;;;;;;4955519;29;20447;-69
2021/01/15 09:46:40;;;;;;;11.40;10.20;;;12.70;69.90;;;;;;4955104;28;20514;-69
2021/01/15 09:49:06;;;;;;;10.70;9.60;;;13.90;67.00;;;;;;4954008;28;20502;-68
2021/01/15 09:51:31;;;;;;;10.33;9.47;;;14.90;64.30;;;;;;4948428;29;20428;-69
2021/01/15 09:53:57;;;;;;;10.80;9.67;;;15.30;60.40;;;;;;4955282;29;20495;-69
2021/01/15 09:56:28;;;;;;;11.77;10.63;;;15.90;57.20;;;;;;4954903;29;20232;-68
2021/01/15 09:58:56;;;;;;;12.43;11.33;;;16.50;55.50;;;;;;4954203;28;20456;-68
2021/01/15 10:01:22;;;;;;;13.80;12.43;;;16.80;53.30;;;;;;4954447;28;20475;-69
2021/01/15 10:03:47;;;;;;;11.33;10.33;;;17.30;52.70;;;;;;4954620;28;20437;-69
2021/01/15 10:06:15;;;;;;;11.83;10.63;;;16.50;50.80;;;;;;4954688;29;20444;-68
2021/01/15 10:08:40;;;;;;;14.50;13.07;;;14.70;52.60;;;;;;4952174;29;20236;-69
2021/01/15 10:11:06;;;;;;;14.40;13.00;;;14.20;55.30;;;;;;4951054;29;20440;-68
2021/01/15 10:13:31;;;;;;;13.37;12.13;;;15.10;53.60;;;;;;4954593;28;20594;-69
2021/01/15 10:15:57;;;;;;;12.00;10.73;;;14.00;54.20;;;;;;4952793;29;20197;-68
2021/01/15 10:18:22;;;;;;;11.47;10.57;;;13.00;55.90;;;;;;4951341;28;20604;-68
2021/01/15 10:20:48;;;;;;;12.67;11.37;;;13.30;56.50;;;;;;4954643;28;20213;-68
2021/01/15 10:23:13;;;;;;;13.37;12.17;;;14.00;55.10;;;;;;4954129;29;20177;-67
2021/01/15 10:25:42;;;;;;;15.90;12.33;;;15.10;54.00;;;;;;4954808;28;20173;-68
2021/01/15 10:28:08;;;;;;;15.70;13.53;;;15.70;52.50;;;;;;4953700;28;20208;-68
2021/01/15 10:30:33;;;;;;;13.80;12.40;;;16.40;52.30;;;;;;4953460;28;20835;-68
2021/01/15 10:32:59;;;;;;;12.00;10.90;;;17.10;50.50;;;;;;4953765;28;20530;-68
2021/01/15 10:35:25;;;;;;;13.17;11.80;;;17.20;48.10;;;;;;4951900;28;20184;-68
2021/01/15 10:37:50;;;;;;;12.03;10.93;;;17.30;48.60;;;;;;4949779;29;20216;-68
2021/01/15 10:40:16;;;;;;;14.60;11.63;;;18.10;46.90;;;;;;4954105;29;20215;-67
2021/01/15 10:42:46;;;;;;;11.80;10.60;;;17.80;46.70;;;;;;4953827;28;20627;-68
2021/01/15 10:45:12;;;;;;;11.07;10.07;;;17.80;45.70;;;;;;4954229;29;20177;-68
2021/01/15 10:47:42;;;;;;;11.20;10.20;;;17.30;45.90;;;;;;4947263;28;20543;-68
2021/01/15 10:50:09;;;;;;;12.20;11.10;;;17.90;46.90;;;;;;4952039;29;20433;-66
2021/01/15 10:52:35;;;;;;;12.43;11.13;;;18.60;45.80;;;;;;4945389;28;20445;-68
2021/01/15 10:55:02;;;;;;;11.77;10.70;;;19.10;44.60;;;;;;4950294;28;20862;-68
2021/01/15 10:57:28;;;;;;;10.43;9.53;;;20.00;43.30;;;;;;4946110;29;20464;-67
2021/01/15 10:59:54;;;;;;;12.10;11.00;;;19.30;42.20;;;;;;4952068;28;20437;-67
2021/01/15 11:02:19;;;;;;;13.00;11.80;;;18.80;44.10;;;;;;4952175;29;20518;-67
2021/01/15 11:04:45;;;;;;;11.17;10.17;;;19.00;43.20;;;;;;4952622;28;20232;-66
2021/01/15 11:07:10;;;;;;;12.63;10.93;;;19.10;43.50;;;;;;4952160;29;20591;-67
2021/01/15 11:09:36;;;;;;;11.53;10.43;;;20.10;41.70;;;;;;4952975;29;20196;-67
2021/01/15 11:12:02;;;;;;;13.63;11.43;;;20.50;41.30;;;;;;4953641;28;20267;-67
2021/01/15 11:14:28;;;;;;;11.50;10.50;;;19.80;40.70;;;;;;4953590;28;20180;-67
2021/01/15 11:16:55;;;;;;;11.87;10.87;;;18.60;41.50;;;;;;4947465;28;20460;-66
2021/01/15 11:19:20;;;;;;;11.13;10.13;;;17.30;43.10;;;;;;4938567;29;20515;-67
2021/01/15 11:21:46;;;;;;;12.30;10.27;;;18.20;43.00;;;;;;4953646;28;20475;-67
2021/01/15 11:24:11;;;;;;;16.40;14.93;;;18.60;42.00;;;;;;4953574;28;20210;-66
2021/01/15 11:26:37;;;;;;;11.97;10.83;;;18.10;42.60;;;;;;4950622;28;20713;-66
2021/01/15 11:29:05;;;;;;;12.37;11.20;;;18.10;43.30;;;;;;4945214;29;20185;-66
2021/01/15 11:31:32;;;;;;;11.97;10.83;;;19.00;42.20;;;;;;4952556;28;20667;-67
2021/01/15 11:33:58;;;;;;;11.33;10.33;;;19.40;41.80;;;;;;4953376;28;20953;-66
2021/01/15 11:36:30;;;;;;;12.03;10.90;;;19.10;41.60;;;;;;4952735;28;20882;-66
2021/01/15 11:39:01;;;;;;;11.80;10.80;;;19.80;41.30;;;;;;4952655;28;20811;-67
2021/01/15 11:41:26;;;;;;;12.90;11.80;;;20.60;40.30;;;;;;4951822;28;20950;-66
2021/01/15 11:43:52;;;;;;;12.73;11.57;;;21.30;39.60;;;;;;4953393;28;20515;-67
2021/01/15 11:46:18;;;;;;;10.70;9.90;;;21.40;38.60;;;;;;4952780;28;20173;-66
2021/01/15 11:48:43;;;;;;;12.67;11.63;;;21.90;38.10;;;;;;4952396;29;20205;-67
2021/01/15 11:51:10;;;;;;;14.43;13.13;;;22.00;37.70;;;;;;4952539;29;20184;-66
2021/01/15 11:53:37;;;;;;;11.17;10.27;;;22.00;37.90;;;;;;4952655;29;20192;-67
2021/01/15 11:56:04;;;;;;;12.30;11.03;;;20.50;38.90;;;;;;4952484;28;20624;-64
2021/01/15 11:58:30;;;;;;;13.10;11.90;;;20.90;38.20;;;;;;4952175;28;20997;-64
2021/01/15 12:00:56;;;;;;;12.90;11.90;;;21.10;38.60;;;;;;4950294;28;20472;-66
2021/01/15 12:03:25;;;;;;;11.73;10.83;;;21.20;38.30;;;;;;4952706;29;20980;-65
2021/01/15 12:05:51;;;;;;;12.37;10.57;;;21.50;37.10;;;;;;4952749;28;20998;-64
2021/01/15 12:08:24;;;;;;;12.43;11.30;;;21.30;38.20;;;;;;4952363;29;20486;-64
2021/01/15 12:10:54;;;;;;;12.07;10.97;;;21.30;37.10;;;;;;4947168;28;20445;-66
2021/01/15 12:13:21;;;;;;;13.33;12.10;;;21.50;37.60;;;;;;4955297;28;20533;-67
2021/01/15 12:15:48;;;;;;;13.10;11.90;;;21.00;36.80;;;;;;4944381;29;20457;-67
2021/01/15 12:18:14;;;;;;;12.33;11.03;;;20.50;38.10;;;;;;4943303;29;20460;-67
2021/01/15 12:20:39;;;;;;;13.43;12.03;;;21.00;38.00;;;;;;4952575;28;20812;-67
2021/01/15 12:23:05;;;;;;;13.33;12.03;;;22.10;36.80;;;;;;4944971;28;20209;-66
2021/01/15 12:25:30;;;;;;;12.40;11.50;;;22.50;36.00;;;;;;4941467;28;20697;-66
2021/01/15 12:27:56;;;;;;;12.93;11.83;;;23.20;35.00;;;;;;4952004;28;20228;-67
2021/01/15 12:30:23;;;;;;;11.57;10.50;;;23.60;35.30;;;;;;4951822;28;20279;-68
2021/01/15 12:32:50;;;;;;;11.90;11.10;;;23.10;34.40;;;;;;4951089;29;21025;-67
2021/01/15 12:35:17;;;;;;;12.03;10.87;;;21.50;35.00;;;;;;4952176;28;20451;-69
2021/01/15 12:37:42;;;;;;;10.57;9.77;;;21.00;35.80;;;;;;4951916;28;20479;-67
2021/01/15 12:40:08;;;;;;;12.90;10.60;;;21.00;36.20;;;;;;4951915;29;20511;-67
2021/01/15 12:42:34;;;;;;;11.07;10.13;;;21.30;35.90;;;;;;4952359;29;20179;-67
2021/01/15 12:44:59;;;;;;;12.23;11.10;;;21.20;35.80;;;;;;4945258;29;20908;-69
2021/01/15 12:47:25;;;;;;;13.40;12.27;;;21.00;36.10;;;;;;4950741;29;20205;-67
2021/01/15 12:49:50;;;;;;;13.60;12.43;;;20.30;37.30;;;;;;4949940;28;20255;-70